createdAt,value
2024-04-23T00:00:41.914Z,11.70
2024-04-23T00:03:08.942Z,8.37
2024-04-23T00:05:35.827Z,11.17
2024-04-23T00:08:02.714Z,15.47
2024-04-23T00:10:29.707Z,11.03
2024-04-23T00:12:57.065Z,12.10
2024-04-23T00:15:23.890Z,11.17
2024-04-23T00:17:51.316Z,11.03
2024-04-23T00:20:18.161Z,10.60
2024-04-23T00:22:45.047Z,14.00
2024-04-23T00:25:11.887Z,10.70
2024-04-23T00:27:38.680Z,12.00
2024-04-23T00:30:06.122Z,10.43
2024-04-23T00:32:33.019Z,10.50
2024-04-23T00:35:00.040Z,10.10
2024-04-23T00:37:26.953Z,9.90
2024-04-23T00:39:55.550Z,10.43
2024-04-23T00:42:22.923Z,8.43
2024-04-23T00:44:53.416Z,10.37
2024-04-23T00:47:21.852Z,9.90
2024-04-23T00:49:49.651Z,10.20
2024-04-23T00:52:17.001Z,12.30
2024-04-23T00:54:44.137Z,6.73
2024-04-23T00:57:11.266Z,10.07
2024-04-23T00:59:38.225Z,11.87
2024-04-23T01:02:05.260Z,9.23
2024-04-23T01:04:32.223Z,7.97
2024-04-23T01:06:59.313Z,7.57
2024-04-23T01:09:26.521Z,8.67
2024-04-23T01:11:53.348Z,11.03
2024-04-23T01:14:20.494Z,11.73
2024-04-23T01:16:49.973Z,10.93
2024-04-23T01:19:36.116Z,9.60
2024-04-23T01:22:12.602Z,7.40
2024-04-23T01:25:13.368Z,10.17
2024-04-23T01:27:41.688Z,9.13
2024-04-23T01:30:09.523Z,9.37
2024-04-23T01:32:39.156Z,8.43
2024-04-23T01:35:07.875Z,8.60
2024-04-23T01:37:36.725Z,11.60
2024-04-23T01:40:05.292Z,8.50
2024-04-23T01:42:33.474Z,7.43
2024-04-23T01:45:01.698Z,8.20
2024-04-23T01:47:29.305Z,13.07
2024-04-23T01:49:56.800Z,10.53
2024-04-23T01:52:23.762Z,8.37
2024-04-23T01:54:50.995Z,8.90
2024-04-23T01:57:18.341Z,6.97
2024-04-23T01:59:49.743Z,7.10
2024-04-23T02:02:17.853Z,9.00
2024-04-23T02:04:45.728Z,8.87
2024-04-23T02:07:14.438Z,8.40
2024-04-23T02:09:42.834Z,7.03
2024-04-23T02:12:16.228Z,11.90
2024-04-23T02:14:43.482Z,5.77
2024-04-23T02:17:10.830Z,9.30
2024-04-23T02:19:37.874Z,9.20
2024-04-23T02:22:04.838Z,7.67
2024-04-23T02:24:31.663Z,8.63
2024-04-23T02:26:58.523Z,7.07
2024-04-23T02:29:25.352Z,8.30
2024-04-23T02:31:52.306Z,7.87
2024-04-23T02:34:19.134Z,7.17
2024-04-23T02:36:45.939Z,7.68
2024-04-23T02:39:13.038Z,6.60
2024-04-23T02:41:50.315Z,9.33
2024-04-23T02:44:17.336Z,7.30
2024-04-23T02:46:44.258Z,7.03
2024-04-23T02:49:11.124Z,6.53
2024-04-23T02:51:51.212Z,6.60
2024-04-23T02:54:18.048Z,9.37
2024-04-23T02:56:46.142Z,7.47
2024-04-23T02:59:12.955Z,5.80
2024-04-23T03:01:39.835Z,6.43
2024-04-23T03:04:06.813Z,7.27
2024-04-23T03:06:33.759Z,6.53
2024-04-23T03:09:00.583Z,9.60
2024-04-23T03:11:27.418Z,8.80
2024-04-23T03:13:54.303Z,5.77
2024-04-23T03:16:21.481Z,5.77
2024-04-23T03:18:48.474Z,6.68
2024-04-23T03:21:15.290Z,6.63
2024-04-23T03:23:42.110Z,7.45
2024-04-23T03:26:08.969Z,5.13
2024-04-23T03:28:35.812Z,9.40
2024-04-23T03:31:02.856Z,5.93
2024-04-23T03:33:29.711Z,6.63
2024-04-23T03:35:56.643Z,6.28
2024-04-23T03:38:23.456Z,5.27
2024-04-23T03:40:50.498Z,7.60
2024-04-23T03:43:17.332Z,5.90
2024-04-23T03:45:44.167Z,7.03
2024-04-23T03:48:11.706Z,7.00
2024-04-23T03:50:38.601Z,5.80
2024-04-23T03:53:05.932Z,7.77
2024-04-23T03:55:32.804Z,7.17
2024-04-23T03:58:00.514Z,5.97
2024-04-23T04:00:28.785Z,8.67
2024-04-23T04:03:14.324Z,9.60
2024-04-23T04:05:59.682Z,7.82
2024-04-23T04:08:26.512Z,7.10
2024-04-23T04:10:53.360Z,6.73
2024-04-23T04:13:23.914Z,9.02
2024-04-23T04:15:51.748Z,8.77
2024-04-23T04:18:19.472Z,8.20
2024-04-23T04:20:46.732Z,6.85
2024-04-23T04:23:13.943Z,7.95
2024-04-23T04:25:40.982Z,4.83
2024-04-23T04:28:07.869Z,6.80
2024-04-23T04:30:34.846Z,6.03
2024-04-23T04:33:02.056Z,8.45
2024-04-23T04:35:28.965Z,8.63
2024-04-23T04:37:56.527Z,5.78
2024-04-23T04:40:23.455Z,8.13
2024-04-23T04:42:52.207Z,7.03
2024-04-23T04:45:19.195Z,8.35
2024-04-23T04:47:50.216Z,9.07
2024-04-23T04:50:20.685Z,7.53
2024-04-23T04:52:47.743Z,7.03
2024-04-23T04:55:15.544Z,7.47
2024-04-23T04:57:42.458Z,7.57
2024-04-23T05:00:09.760Z,8.27
2024-04-23T05:02:36.600Z,7.70
2024-04-23T05:05:03.630Z,9.70
2024-04-23T05:07:30.509Z,9.55
2024-04-23T05:09:57.563Z,8.63
2024-04-23T05:12:24.472Z,7.30
2024-04-23T05:14:53.084Z,7.53
2024-04-23T05:17:19.930Z,9.13
2024-04-23T05:19:46.883Z,8.20
2024-04-23T05:22:14.250Z,12.67
2024-04-23T05:24:41.089Z,7.37
2024-04-23T05:27:07.925Z,8.10
2024-04-23T05:29:34.774Z,7.55
2024-04-23T05:32:20.970Z,5.25
2024-04-23T05:34:48.308Z,6.83
2024-04-23T05:37:15.140Z,6.17
2024-04-23T05:39:41.928Z,8.43
2024-04-23T05:42:08.783Z,10.57
2024-04-23T05:44:35.735Z,5.50
2024-04-23T05:47:02.625Z,7.57
2024-04-23T05:50:07.328Z,7.23
2024-04-23T05:53:30.529Z,7.30
2024-04-23T05:56:16.034Z,7.03
2024-04-23T05:58:43.254Z,4.97
2024-04-23T06:01:10.273Z,6.80
2024-04-23T06:03:37.113Z,5.50
2024-04-23T06:06:04.111Z,6.90
2024-04-23T06:08:31.102Z,6.57
2024-04-23T06:10:58.010Z,5.23
2024-04-23T06:13:24.962Z,6.20
2024-04-23T06:15:51.776Z,10.80
2024-04-23T06:18:23.785Z,5.03
2024-04-23T06:20:53.912Z,4.63
2024-04-23T06:23:28.448Z,5.60
2024-04-23T06:25:59.012Z,3.87
2024-04-23T06:28:25.901Z,4.80
2024-04-23T06:30:52.711Z,3.87
2024-04-23T06:33:21.100Z,3.90
2024-04-23T06:35:48.001Z,5.40
2024-04-23T06:38:14.866Z,4.70
2024-04-23T06:40:41.703Z,4.37
2024-04-23T06:43:10.173Z,2.80
2024-04-23T06:45:37.790Z,4.53
2024-04-23T06:48:05.140Z,6.17
2024-04-23T06:50:32.019Z,3.30
2024-04-23T06:53:00.224Z,5.57
2024-04-23T06:55:27.228Z,4.73
2024-04-23T06:57:54.410Z,7.40
2024-04-23T07:00:21.245Z,4.70
2024-04-23T07:02:48.087Z,4.70
2024-04-23T07:05:15.166Z,3.90
2024-04-23T07:07:42.064Z,6.37
2024-04-23T07:10:09.195Z,3.73
2024-04-23T07:12:36.128Z,4.10
2024-04-23T07:15:03.042Z,2.70
2024-04-23T07:17:30.169Z,4.80
2024-04-23T07:19:57.140Z,4.20
2024-04-23T07:22:24.016Z,3.80
2024-04-23T07:24:50.861Z,4.10
2024-04-23T07:27:17.685Z,4.80
2024-04-23T07:29:44.636Z,5.13
2024-04-23T07:32:14.364Z,4.10
2024-04-23T07:34:41.628Z,4.33
2024-04-23T07:37:08.573Z,2.90
2024-04-23T07:39:35.435Z,3.50
2024-04-23T07:42:02.276Z,4.10
2024-04-23T07:44:29.250Z,3.17
2024-04-23T07:46:56.223Z,2.67
2024-04-23T07:49:23.060Z,5.53
2024-04-23T07:51:49.945Z,3.10
2024-04-23T07:54:17.458Z,3.90
2024-04-23T07:56:47.144Z,4.00
2024-04-23T07:59:14.225Z,4.30
2024-04-23T08:01:41.259Z,3.43
2024-04-23T08:04:08.197Z,3.70
2024-04-23T08:06:36.220Z,2.43
2024-04-23T08:09:03.070Z,2.77
2024-04-23T08:11:30.354Z,3.90
2024-04-23T08:13:57.315Z,3.10
2024-04-23T08:16:24.251Z,4.00
2024-04-23T08:18:51.239Z,2.80
2024-04-23T08:21:18.181Z,2.30
2024-04-23T08:23:45.064Z,3.10
2024-04-23T08:26:18.907Z,2.50
2024-04-23T08:28:47.865Z,2.50
2024-04-23T08:31:14.845Z,2.60
2024-04-23T08:33:41.766Z,3.60
2024-04-23T08:36:08.752Z,3.37
2024-04-23T08:38:35.595Z,4.50
2024-04-23T08:41:02.921Z,3.37
2024-04-23T08:43:37.937Z,2.70
2024-04-23T08:46:05.932Z,4.07
2024-04-23T08:48:35.697Z,4.43
2024-04-23T08:51:04.370Z,3.23
2024-04-23T08:53:33.619Z,2.43
2024-04-23T08:56:06.252Z,3.80
2024-04-23T08:58:38.611Z,4.90
2024-04-23T09:01:09.755Z,2.70
2024-04-23T09:03:47.796Z,4.07
2024-04-23T09:06:14.838Z,2.53
2024-04-23T09:08:42.270Z,3.00
2024-04-23T09:11:10.214Z,2.77
2024-04-23T09:13:37.428Z,3.80
2024-04-23T09:16:04.478Z,2.50
2024-04-23T09:18:32.643Z,3.90
2024-04-23T09:21:02.686Z,4.00
2024-04-23T09:23:30.202Z,2.90
2024-04-23T09:26:00.870Z,2.83
2024-04-23T09:28:27.942Z,5.50
2024-04-23T09:30:55.017Z,5.20
2024-04-23T09:33:28.187Z,3.93
2024-04-23T09:36:04.972Z,2.80
2024-04-23T09:38:39.628Z,2.90
2024-04-23T09:41:07.867Z,2.20
2024-04-23T09:43:35.202Z,2.47
2024-04-23T09:46:06.227Z,3.50
2024-04-23T09:48:35.021Z,2.90
2024-04-23T09:51:07.270Z,4.73
2024-04-23T09:53:39.221Z,2.20
2024-04-23T09:56:14.277Z,2.73
2024-04-23T09:58:41.606Z,2.73
2024-04-23T10:01:09.555Z,3.00
2024-04-23T10:03:43.009Z,3.07
2024-04-23T10:06:14.356Z,2.60
2024-04-23T10:08:54.803Z,2.37
2024-04-23T10:11:30.519Z,2.30
2024-04-23T10:14:08.034Z,2.80
2024-04-23T10:16:44.696Z,2.50
2024-04-23T10:19:14.151Z,2.23
2024-04-23T10:21:44.079Z,2.30
2024-04-23T10:24:11.623Z,2.67
2024-04-23T10:26:43.850Z,3.07
2024-04-23T10:29:13.174Z,3.67
2024-04-23T10:31:42.636Z,2.40
2024-04-23T10:34:09.940Z,3.13
2024-04-23T10:36:42.231Z,3.23
2024-04-23T10:39:12.717Z,3.10
2024-04-23T10:41:40.081Z,5.27
2024-04-23T10:44:10.866Z,2.90
2024-04-23T10:46:39.230Z,3.00
2024-04-23T10:49:17.137Z,2.47
2024-04-23T10:51:45.800Z,4.53
2024-04-23T10:54:17.622Z,3.53
2024-04-23T10:56:44.513Z,7.10
2024-04-23T10:59:18.060Z,5.10
2024-04-23T11:01:52.109Z,3.73
2024-04-23T11:04:40.754Z,4.43
2024-04-23T11:07:10.213Z,3.50
2024-04-23T11:09:43.743Z,2.70
2024-04-23T11:12:21.075Z,3.50
2024-04-23T11:14:49.004Z,3.30
2024-04-23T11:17:17.942Z,5.17
2024-04-23T11:19:49.545Z,5.30
2024-04-23T11:22:18.033Z,3.90
2024-04-23T11:24:56.497Z,3.70
2024-04-23T11:27:27.251Z,3.40
2024-04-23T11:29:54.489Z,4.40
2024-04-23T11:32:21.711Z,3.93
2024-04-23T11:34:49.461Z,3.37
2024-04-23T11:37:28.818Z,3.20
2024-04-23T11:40:00.383Z,5.33
2024-04-23T11:42:31.985Z,4.33
2024-04-23T11:44:59.371Z,2.87
2024-04-23T11:47:28.926Z,3.27
2024-04-23T11:49:57.544Z,2.60
2024-04-23T11:52:24.947Z,3.33
2024-04-23T11:54:55.250Z,5.20
2024-04-23T11:57:22.901Z,2.97
2024-04-23T11:59:53.436Z,4.50
2024-04-23T12:02:20.689Z,4.33
2024-04-23T12:04:49.739Z,4.57
2024-04-23T12:07:17.143Z,24.13
2024-04-23T12:09:48.572Z,10.77
2024-04-23T12:12:20.066Z,5.90
2024-04-23T12:14:47.392Z,4.30
2024-04-23T12:17:14.525Z,4.50
2024-04-23T12:19:43.369Z,3.80
2024-04-23T12:22:17.405Z,5.80
2024-04-23T12:24:44.943Z,3.90
2024-04-23T12:27:14.524Z,6.70
2024-04-23T12:29:42.894Z,4.10
2024-04-23T12:32:09.877Z,3.80
2024-04-23T12:34:37.036Z,3.90
2024-04-23T12:37:04.359Z,4.00
2024-04-23T12:39:31.787Z,4.57
2024-04-23T12:42:14.560Z,3.93
2024-04-23T12:44:41.558Z,3.53
2024-04-23T12:47:10.767Z,7.00
2024-04-23T12:49:38.669Z,4.70
2024-04-23T12:52:05.790Z,5.87
2024-04-23T12:54:34.657Z,5.50
2024-04-23T12:57:02.779Z,4.93
2024-04-23T12:59:31.393Z,4.83
2024-04-23T13:02:00.475Z,3.07
2024-04-23T13:04:27.678Z,3.10
2024-04-23T13:06:54.636Z,4.77
2024-04-23T13:09:21.481Z,4.03
2024-04-23T13:11:48.406Z,9.00
2024-04-23T13:14:15.345Z,5.00
2024-04-23T13:16:48.633Z,3.33
2024-04-23T13:19:17.392Z,3.77
2024-04-23T13:21:44.225Z,3.30
2024-04-23T13:24:12.025Z,4.20
2024-04-23T13:26:38.887Z,6.27
2024-04-23T13:29:06.570Z,4.63
2024-04-23T13:31:33.470Z,4.17
2024-04-23T13:34:00.320Z,4.57
2024-04-23T13:36:27.415Z,5.17
2024-04-23T13:38:54.272Z,5.03
2024-04-23T13:41:23.355Z,8.00
2024-04-23T13:43:50.405Z,6.77
2024-04-23T13:46:17.337Z,6.77
2024-04-23T13:48:44.391Z,4.10
2024-04-23T13:51:11.457Z,6.07
2024-04-23T13:53:38.348Z,6.53
2024-04-23T13:56:11.299Z,3.90
2024-04-23T13:58:38.492Z,4.70
2024-04-23T14:01:09.658Z,4.47
2024-04-23T14:03:37.141Z,5.70
2024-04-23T14:06:08.409Z,5.67
2024-04-23T14:08:36.246Z,6.43
2024-04-23T14:11:04.342Z,6.13
2024-04-23T14:13:37.751Z,4.40
2024-04-23T14:16:11.279Z,5.30
2024-04-23T14:18:38.730Z,6.60
2024-04-23T14:21:05.891Z,5.67
2024-04-23T14:23:33.554Z,7.27
2024-04-23T14:26:00.595Z,7.00
2024-04-23T14:28:31.149Z,8.37
2024-04-23T14:31:03.932Z,6.67
2024-04-23T14:33:31.756Z,7.30
2024-04-23T14:36:02.944Z,7.63
2024-04-23T14:38:31.898Z,7.03
2024-04-23T14:41:03.480Z,7.80
2024-04-23T14:43:30.975Z,7.87
2024-04-23T14:45:58.021Z,8.20
2024-04-23T14:48:25.984Z,8.80
2024-04-23T14:50:53.036Z,10.60
2024-04-23T14:53:21.935Z,6.27
2024-04-23T14:56:02.505Z,6.83
2024-04-23T14:58:31.046Z,6.37
2024-04-23T15:00:58.535Z,5.90
2024-04-23T15:03:26.250Z,6.30
2024-04-23T15:05:53.165Z,7.23
2024-04-23T15:08:20.088Z,7.50
2024-04-23T15:10:51.345Z,7.00
2024-04-23T15:13:18.931Z,5.97
2024-04-23T15:15:46.415Z,5.50
2024-04-23T15:18:14.361Z,9.53
2024-04-23T15:20:42.561Z,5.77
2024-04-23T15:23:09.576Z,5.67
2024-04-23T15:25:36.558Z,9.37
2024-04-23T15:28:03.647Z,7.60
2024-04-23T15:30:30.564Z,5.57
2024-04-23T15:32:57.981Z,7.83
2024-04-23T15:35:25.286Z,8.40
2024-04-23T15:37:52.440Z,6.80
2024-04-23T15:40:19.441Z,6.30
2024-04-23T15:42:46.347Z,5.60
2024-04-23T15:45:14.211Z,6.00
2024-04-23T15:47:41.542Z,12.87
2024-04-23T15:50:08.971Z,6.13
2024-04-23T15:52:35.906Z,6.00
2024-04-23T15:55:02.821Z,6.50
2024-04-23T15:57:29.950Z,6.60
2024-04-23T15:59:56.756Z,6.33
2024-04-23T16:02:25.310Z,6.70
2024-04-23T16:04:52.328Z,6.50
2024-04-23T16:07:22.297Z,7.60
2024-04-23T16:09:49.928Z,7.23
2024-04-23T16:12:17.012Z,7.17
2024-04-23T16:14:44.527Z,7.87
2024-04-23T16:17:11.612Z,7.47
2024-04-23T16:19:38.893Z,8.30
2024-04-23T16:22:06.254Z,12.80
2024-04-23T16:24:33.092Z,6.33
2024-04-23T16:27:02.572Z,6.33
2024-04-23T16:29:30.512Z,6.43
2024-04-23T16:31:57.626Z,6.70
2024-04-23T16:34:25.070Z,7.53
2024-04-23T16:36:52.166Z,7.00
2024-04-23T16:39:20.458Z,8.17
2024-04-23T16:41:48.326Z,7.00
2024-04-23T16:44:15.254Z,9.67
2024-04-23T16:46:42.194Z,8.07
2024-04-23T16:49:09.208Z,7.70
2024-04-23T16:51:36.163Z,9.90
2024-04-23T16:54:03.930Z,9.27
2024-04-23T16:56:30.872Z,8.47
2024-04-23T16:58:57.720Z,7.73
2024-04-23T17:01:24.556Z,7.60
2024-04-23T17:03:51.523Z,7.83
2024-04-23T17:06:18.393Z,8.10
2024-04-23T17:08:45.695Z,9.90
2024-04-23T17:11:12.671Z,8.20
2024-04-23T17:13:39.589Z,7.70
2024-04-23T17:16:17.598Z,8.53
2024-04-23T17:18:44.639Z,8.20
2024-04-23T17:21:20.854Z,9.37
2024-04-23T17:23:47.849Z,11.40
2024-04-23T17:26:14.976Z,12.20
2024-04-23T17:28:42.026Z,9.50
2024-04-23T17:31:09.113Z,12.43
2024-04-23T17:33:36.228Z,9.10
2024-04-23T17:36:03.552Z,9.73
2024-04-23T17:38:30.520Z,10.07
2024-04-23T17:40:57.468Z,9.20
2024-04-23T17:43:24.416Z,10.23
2024-04-23T17:45:51.278Z,10.07
2024-04-23T17:48:18.318Z,9.93
2024-04-23T17:50:45.252Z,16.30
2024-04-23T17:53:12.174Z,12.60
2024-04-23T17:55:40.582Z,14.20
2024-04-23T17:58:07.655Z,10.80
2024-04-23T18:00:34.784Z,10.60
2024-04-23T18:03:01.744Z,11.13
2024-04-23T18:05:28.606Z,12.43
2024-04-23T18:07:55.504Z,13.53
2024-04-23T18:10:22.414Z,10.10
2024-04-23T18:12:49.392Z,10.77
2024-04-23T18:15:16.240Z,8.63
2024-04-23T18:17:43.165Z,9.80
2024-04-23T18:20:10.477Z,19.93
2024-04-23T18:22:37.395Z,14.73
2024-04-23T18:25:04.786Z,12.07
2024-04-23T18:27:31.759Z,12.47
2024-04-23T18:29:58.582Z,12.97
2024-04-23T18:32:26.070Z,11.33
2024-04-23T18:34:52.965Z,10.27
2024-04-23T18:37:19.812Z,10.33
2024-04-23T18:39:46.765Z,10.23
2024-04-23T18:42:13.778Z,11.03
2024-04-23T18:44:40.921Z,11.13
2024-04-23T18:47:07.880Z,9.40
2024-04-23T18:49:34.740Z,9.93
2024-04-23T18:52:01.642Z,10.03
2024-04-23T18:54:28.576Z,10.10
2024-04-23T18:56:55.878Z,9.50
2024-04-23T18:59:23.025Z,10.67
2024-04-23T19:01:50.128Z,10.87
2024-04-23T19:04:17.084Z,23.47
2024-04-23T19:06:44.232Z,11.20
2024-04-23T19:09:11.063Z,14.50
2024-04-23T19:11:38.179Z,10.90
2024-04-23T19:14:14.356Z,10.53
2024-04-23T19:16:44.873Z,12.83
2024-04-23T19:19:12.431Z,15.70
2024-04-23T19:21:39.366Z,15.27
2024-04-23T19:24:06.875Z,12.90
2024-04-23T19:26:33.742Z,12.80
2024-04-23T19:29:00.793Z,12.97
2024-04-23T19:31:27.795Z,13.63
2024-04-23T19:33:54.787Z,12.23
2024-04-23T19:36:23.103Z,14.43
2024-04-23T19:38:49.998Z,13.67
2024-04-23T19:41:17.505Z,13.90
2024-04-23T19:43:52.186Z,13.20
2024-04-23T19:46:24.318Z,14.17
2024-04-23T19:48:52.039Z,13.50
2024-04-23T19:51:22.411Z,12.60
2024-04-23T19:53:50.309Z,13.50
2024-04-23T19:56:27.780Z,14.63
2024-04-23T19:58:57.428Z,15.30
2024-04-23T20:01:24.957Z,14.53
2024-04-23T20:03:52.007Z,13.37
2024-04-23T20:06:18.955Z,13.10
2024-04-23T20:08:45.851Z,13.53
2024-04-23T20:11:12.808Z,14.70
2024-04-23T20:13:40.888Z,17.53
2024-04-23T20:16:07.798Z,15.60
2024-04-23T20:18:34.815Z,15.40
2024-04-23T20:21:01.804Z,13.40
2024-04-23T20:23:28.900Z,15.83
2024-04-23T20:25:55.910Z,15.27
2024-04-23T20:28:23.559Z,16.07
2024-04-23T20:30:50.578Z,16.17
2024-04-23T20:33:17.510Z,11.80
2024-04-23T20:35:44.421Z,12.20
2024-04-23T20:38:11.295Z,13.10
2024-04-23T20:40:39.774Z,10.80
2024-04-23T20:43:06.649Z,12.50
2024-04-23T20:45:33.461Z,11.53
2024-04-23T20:48:00.509Z,12.43
2024-04-23T20:50:27.598Z,12.50
2024-04-23T20:52:54.460Z,14.37
2024-04-23T20:55:21.360Z,13.03
2024-04-23T20:57:48.183Z,14.73
2024-04-23T21:00:15.148Z,13.03
2024-04-23T21:02:42.023Z,14.20
2024-04-23T21:05:08.887Z,11.70
2024-04-23T21:07:37.878Z,12.60
2024-04-23T21:10:06.043Z,11.77
2024-04-23T21:12:33.372Z,13.27
2024-04-23T21:15:00.267Z,9.10
2024-04-23T21:17:27.358Z,10.80
2024-04-23T21:19:54.273Z,12.20
2024-04-23T21:22:21.173Z,11.90
2024-04-23T21:24:48.038Z,11.10
2024-04-23T21:27:15.484Z,9.20
2024-04-23T21:29:42.965Z,10.63
2024-04-23T21:32:09.880Z,11.70
2024-04-23T21:34:36.723Z,10.17
2024-04-23T21:37:03.574Z,9.30
2024-04-23T21:39:30.602Z,11.90
2024-04-23T21:41:58.549Z,10.10
2024-04-23T21:44:25.485Z,8.90
2024-04-23T21:46:52.657Z,10.80
2024-04-23T21:49:19.492Z,10.70
2024-04-23T21:52:09.380Z,10.17
2024-04-23T21:54:33.104Z,7.37
2024-04-23T21:57:00.262Z,8.60
2024-04-23T21:59:27.138Z,9.27
2024-04-23T22:01:53.983Z,7.90
2024-04-23T22:04:20.832Z,9.43
2024-04-23T22:06:47.659Z,8.53
2024-04-23T22:09:14.493Z,9.50
2024-04-23T22:11:41.447Z,11.10
2024-04-23T22:14:08.556Z,12.47
2024-04-23T22:16:35.505Z,11.57
2024-04-23T22:19:02.334Z,11.13
2024-04-23T22:21:29.916Z,11.67
2024-04-23T22:23:56.725Z,12.17
2024-04-23T22:26:24.187Z,11.87
2024-04-23T22:28:51.149Z,12.77
2024-04-23T22:31:17.993Z,12.60
2024-04-23T22:33:44.927Z,15.27
2024-04-23T22:36:11.909Z,11.80
2024-04-23T22:38:38.776Z,12.67
2024-04-23T22:41:05.653Z,15.00
2024-04-23T22:43:32.566Z,15.97
2024-04-23T22:45:59.732Z,15.20
2024-04-23T22:48:26.741Z,14.67
2024-04-23T22:50:53.663Z,14.30
2024-04-23T22:53:20.555Z,16.80
2024-04-23T22:55:47.452Z,11.33
2024-04-23T22:58:14.615Z,16.20
2024-04-23T23:00:41.527Z,16.80
2024-04-23T23:03:08.420Z,12.07
2024-04-23T23:05:36.347Z,16.33
2024-04-23T23:08:03.275Z,13.83
2024-04-23T23:10:30.134Z,18.50
2024-04-23T23:12:57.003Z,13.57
2024-04-23T23:15:23.839Z,15.50
2024-04-23T23:17:50.777Z,15.97
2024-04-23T23:20:17.726Z,16.40
2024-04-23T23:22:46.693Z,17.00
2024-04-23T23:25:15.380Z,17.00
2024-04-23T23:27:42.223Z,20.07
2024-04-23T23:30:09.319Z,17.70
2024-04-23T23:32:36.549Z,20.17
2024-04-23T23:35:03.536Z,19.30
2024-04-23T23:37:30.400Z,19.27
2024-04-23T23:39:57.221Z,17.00
2024-04-23T23:42:24.038Z,18.50
2024-04-23T23:44:50.875Z,22.57
2024-04-23T23:47:17.768Z,18.90
2024-04-23T23:49:44.734Z,20.57
2024-04-23T23:52:13.050Z,20.00
2024-04-23T23:54:39.909Z,20.00
2024-04-23T23:57:06.755Z,20.47
2024-04-23T23:59:33.569Z,24.87
